Time;durP1;ratioP1;P1;durP2;ratioP2;P2;SDS_P1;SDS_P2;PMS_P1;PMS_P2;Temp;Humidity;BMP_temperature;BMP_pressure;BME280_temperature;BME280_humidity;BME280_pressure;Samples;Min_cycle;Max_cycle;Signal;HPM_P1;HPM_P2
2023/10/28 00:00:26;;;;;;;16.58;6.18;;;;;;;;;;5059223;28;20031;-40
2023/10/28 00:02:51;;;;;;;17.15;5.97;;;;;;;;;;5057795;28;20024;-39
2023/10/28 00:05:16;;;;;;;13.10;5.00;;;;;;;;;;5061697;28;20090;-38
2023/10/28 00:07:42;;;;;;;14.68;5.80;;;;;;;;;;5063538;28;20028;-40
2023/10/28 00:10:07;;;;;;;10.52;5.18;;;;;;;;;;5062731;28;20032;-39
2023/10/28 00:12:33;;;;;;;6.25;2.53;;;;;;;;;;5054189;28;20033;-38
2023/10/28 00:14:58;;;;;;;9.70;4.57;;;;;;;;;;5059130;28;20851;-38
2023/10/28 00:17:24;;;;;;;8.00;4.53;;;;;;;;;;5059267;28;20028;-39
2023/10/28 00:19:50;;;;;;;10.47;4.00;;;;;;;;;;5061286;28;20021;-39
2023/10/28 00:22:17;;;;;;;10.40;3.97;;;;;;;;;;5059825;28;20366;-38
2023/10/28 00:24:42;;;;;;;9.48;4.03;;;;;;;;;;5061182;28;20032;-39
2023/10/28 00:27:08;;;;;;;5.22;2.53;;;;;;;;;;5066190;28;20029;-38
2023/10/28 00:29:33;;;;;;;8.93;4.13;;;;;;;;;;5054979;28;20054;-37
2023/10/28 00:31:58;;;;;;;8.93;5.07;;;;;;;;;;5057613;28;20730;-39
2023/10/28 00:34:24;;;;;;;10.73;4.20;;;;;;;;;;5059768;28;20279;-39
2023/10/28 00:36:49;;;;;;;8.80;4.40;;;;;;;;;;5059174;28;20274;-39
2023/10/28 00:39:14;;;;;;;10.57;4.07;;;;;;;;;;5058765;28;20275;-38
2023/10/28 00:41:39;;;;;;;12.60;4.20;;;;;;;;;;5061421;28;20029;-38
2023/10/28 00:44:05;;;;;;;9.67;4.57;;;;;;;;;;5061302;28;20043;-39
2023/10/28 00:46:31;;;;;;;10.43;4.95;;;;;;;;;;5058240;28;21490;-38
2023/10/28 00:48:56;;;;;;;8.75;4.63;;;;;;;;;;5054980;28;20470;-39
2023/10/28 00:51:21;;;;;;;9.55;4.47;;;;;;;;;;5057613;28;20162;-40
2023/10/28 00:53:47;;;;;;;11.48;4.90;;;;;;;;;;5056871;28;20041;-38
2023/10/28 00:56:12;;;;;;;11.52;4.20;;;;;;;;;;5059971;28;20043;-39
2023/10/28 00:58:39;;;;;;;12.32;5.82;;;;;;;;;;5063204;28;20016;-37
2023/10/28 01:01:06;;;;;;;12.32;4.72;;;;;;;;;;5054921;28;20090;-38
2023/10/28 01:03:31;;;;;;;11.45;5.03;;;;;;;;;;5058678;28;20078;-39
2023/10/28 01:05:56;;;;;;;9.38;5.03;;;;;;;;;;5065327;28;20043;-39
2023/10/28 01:08:22;;;;;;;9.88;4.95;;;;;;;;;;5057472;28;20711;-39
2023/10/28 01:10:47;;;;;;;10.50;5.10;;;;;;;;;;5054595;28;20111;-41
2023/10/28 01:13:12;;;;;;;6.22;3.33;;;;;;;;;;5060125;28;20374;-39
2023/10/28 01:15:37;;;;;;;9.07;4.50;;;;;;;;;;5064102;28;20549;-39
2023/10/28 01:18:03;;;;;;;10.03;5.40;;;;;;;;;;5065591;28;20337;-37
2023/10/28 01:20:28;;;;;;;12.60;4.95;;;;;;;;;;5063366;28;20273;-39
2023/10/28 01:22:53;;;;;;;12.60;5.53;;;;;;;;;;5061860;28;20050;-40
2023/10/28 01:25:19;;;;;;;13.40;5.10;;;;;;;;;;5058657;28;20302;-38
2023/10/28 01:27:44;;;;;;;11.05;5.18;;;;;;;;;;5055651;28;20343;-40
2023/10/28 01:30:13;;;;;;;10.15;5.38;;;;;;;;;;5054427;28;20029;-38
2023/10/28 01:32:39;;;;;;;10.88;5.45;;;;;;;;;;5060412;28;20085;-38
2023/10/28 01:35:05;;;;;;;10.93;5.38;;;;;;;;;;5060046;28;20017;-39
2023/10/28 01:37:30;;;;;;;10.55;5.05;;;;;;;;;;5063061;28;20090;-39
2023/10/28 01:39:56;;;;;;;8.77;4.83;;;;;;;;;;5062881;28;20024;-39
2023/10/28 01:42:22;;;;;;;11.50;5.68;;;;;;;;;;5056226;28;20302;-39
2023/10/28 01:44:50;;;;;;;14.05;4.78;;;;;;;;;;5056139;28;20048;-38
2023/10/28 01:47:16;;;;;;;12.48;5.00;;;;;;;;;;5057925;28;20024;-39
2023/10/28 01:49:44;;;;;;;12.23;6.03;;;;;;;;;;5058207;28;20471;-39
2023/10/28 01:52:10;;;;;;;8.70;5.03;;;;;;;;;;5054901;28;20025;-40
2023/10/28 01:54:35;;;;;;;11.57;4.88;;;;;;;;;;5064306;28;20040;-38
2023/10/28 01:57:05;;;;;;;7.32;4.70;;;;;;;;;;5064921;28;20032;-39
2023/10/28 01:59:31;;;;;;;7.97;4.50;;;;;;;;;;5045063;28;20020;-40
2023/10/28 02:01:56;;;;;;;10.23;4.72;;;;;;;;;;5060344;28;20020;-38
2023/10/28 02:04:21;;;;;;;6.03;3.83;;;;;;;;;;5056355;28;20035;-39
2023/10/28 02:06:50;;;;;;;8.90;5.23;;;;;;;;;;5057124;28;20029;-40
2023/10/28 02:09:15;;;;;;;9.73;4.28;;;;;;;;;;5062798;28;20341;-39
2023/10/28 02:11:40;;;;;;;7.57;4.05;;;;;;;;;;5059517;28;20028;-38
2023/10/28 02:14:08;;;;;;;11.68;3.95;;;;;;;;;;5061358;28;20468;-39
2023/10/28 02:16:36;;;;;;;8.00;4.65;;;;;;;;;;5055584;28;20048;-37
2023/10/28 02:19:01;;;;;;;7.95;4.13;;;;;;;;;;5060089;28;20032;-39
2023/10/28 02:21:27;;;;;;;12.57;4.30;;;;;;;;;;5062501;28;20040;-39
2023/10/28 02:23:52;;;;;;;9.33;4.07;;;;;;;;;;5053781;28;20278;-38
2023/10/28 02:26:17;;;;;;;5.30;2.57;;;;;;;;;;5060426;28;20634;-39
2023/10/28 02:28:43;;;;;;;9.80;4.35;;;;;;;;;;5058967;28;20279;-39
2023/10/28 02:31:09;;;;;;;8.83;4.43;;;;;;;;;;5056263;28;20542;-39
2023/10/28 02:33:34;;;;;;;11.23;4.53;;;;;;;;;;5060605;28;20279;-38
2023/10/28 02:36:03;;;;;;;13.27;4.75;;;;;;;;;;5058438;28;20103;-37
2023/10/28 02:38:28;;;;;;;13.93;4.43;;;;;;;;;;5059892;28;20016;-39
2023/10/28 02:40:54;;;;;;;9.43;4.28;;;;;;;;;;5060212;28;20677;-40
2023/10/28 02:43:19;;;;;;;9.03;5.03;;;;;;;;;;5057717;28;20032;-37
2023/10/28 02:45:44;;;;;;;11.57;5.10;;;;;;;;;;5058312;28;20309;-39
2023/10/28 02:48:09;;;;;;;12.63;5.03;;;;;;;;;;5061379;28;20033;-38
2023/10/28 02:50:36;;;;;;;15.93;5.63;;;;;;;;;;5057204;28;20660;-37
2023/10/28 02:53:01;;;;;;;8.55;4.18;;;;;;;;;;5060308;28;20282;-37
2023/10/28 02:55:27;;;;;;;13.63;5.20;;;;;;;;;;5057676;28;20040;-39
2023/10/28 02:57:52;;;;;;;12.63;4.97;;;;;;;;;;5061559;28;20047;-38
2023/10/28 03:00:17;;;;;;;11.70;5.10;;;;;;;;;;5066485;28;20032;-38
2023/10/28 03:02:43;;;;;;;13.50;5.55;;;;;;;;;;5063250;28;20028;-39
2023/10/28 03:05:08;;;;;;;10.50;4.72;;;;;;;;;;5054247;28;20506;-39
2023/10/28 03:07:34;;;;;;;9.85;4.47;;;;;;;;;;5060239;28;20033;-36
2023/10/28 03:09:59;;;;;;;7.60;4.68;;;;;;;;;;5063005;28;20044;-39
2023/10/28 03:12:25;;;;;;;9.38;4.75;;;;;;;;;;5063538;28;20107;-39
2023/10/28 03:14:50;;;;;;;16.17;6.10;;;;;;;;;;5063102;28;20612;-39
2023/10/28 03:17:17;;;;;;;14.77;5.37;;;;;;;;;;5067335;28;20295;-38
2023/10/28 03:19:42;;;;;;;13.43;4.82;;;;;;;;;;5061075;28;20805;-38
2023/10/28 03:22:07;;;;;;;12.20;6.32;;;;;;;;;;5056753;28;20032;-36
2023/10/28 03:24:33;;;;;;;10.95;5.13;;;;;;;;;;5063032;28;20021;-38
2023/10/28 03:26:58;;;;;;;13.95;6.22;;;;;;;;;;5066796;28;20049;-38
2023/10/28 03:29:23;;;;;;;13.88;6.45;;;;;;;;;;5055476;28;20029;-39
2023/10/28 03:31:48;;;;;;;13.80;5.80;;;;;;;;;;5063726;28;20035;-38
2023/10/28 03:34:14;;;;;;;13.67;5.83;;;;;;;;;;5062325;28;20290;-38
2023/10/28 03:36:39;;;;;;;11.85;5.43;;;;;;;;;;5063907;28;20263;-37
2023/10/28 03:39:05;;;;;;;8.95;5.25;;;;;;;;;;5058814;28;20098;-39
2023/10/28 03:41:30;;;;;;;12.25;5.90;;;;;;;;;;5062918;28;20078;-38
2023/10/28 03:43:55;;;;;;;12.90;5.63;;;;;;;;;;5060495;28;20039;-36
2023/10/28 03:46:21;;;;;;;12.47;6.13;;;;;;;;;;5063473;28;20032;-38
2023/10/28 03:48:46;;;;;;;12.27;5.50;;;;;;;;;;5059189;28;20270;-38
2023/10/28 03:51:12;;;;;;;12.27;6.43;;;;;;;;;;5059092;28;20037;-38
2023/10/28 03:53:37;;;;;;;13.52;6.60;;;;;;;;;;5060624;28;20446;-40
2023/10/28 03:56:03;;;;;;;11.93;6.05;;;;;;;;;;5059099;28;20112;-39
2023/10/28 03:58:28;;;;;;;10.85;5.53;;;;;;;;;;5060649;28;20005;-37
2023/10/28 04:00:53;;;;;;;14.10;7.87;;;;;;;;;;5061011;28;20043;-39
2023/10/28 04:03:20;;;;;;;16.50;8.55;;;;;;;;;;5062905;28;20310;-39
2023/10/28 04:05:45;;;;;;;12.63;6.20;;;;;;;;;;5051544;28;20025;-38
2023/10/28 04:08:10;;;;;;;14.65;5.35;;;;;;;;;;5063328;28;20028;-39
2023/10/28 04:10:36;;;;;;;15.93;6.68;;;;;;;;;;5063853;28;20024;-41
2023/10/28 04:13:01;;;;;;;14.55;5.80;;;;;;;;;;5058425;28;20049;-37
2023/10/28 04:15:27;;;;;;;12.20;6.37;;;;;;;;;;5062735;28;20016;-38
2023/10/28 04:17:52;;;;;;;14.45;5.38;;;;;;;;;;5064530;28;20348;-37
2023/10/28 04:20:17;;;;;;;17.37;5.80;;;;;;;;;;5060340;28;20070;-39
2023/10/28 04:22:43;;;;;;;15.93;8.17;;;;;;;;;;5066157;28;20748;-38
2023/10/28 04:25:09;;;;;;;14.02;6.25;;;;;;;;;;5069956;28;20281;-39
2023/10/28 04:27:34;;;;;;;14.95;5.65;;;;;;;;;;5064904;28;20016;-39
2023/10/28 04:30:00;;;;;;;8.50;3.88;;;;;;;;;;5060461;28;20033;-38
2023/10/28 04:32:27;;;;;;;12.60;5.45;;;;;;;;;;5053539;28;20096;-38
2023/10/28 04:34:52;;;;;;;10.75;5.32;;;;;;;;;;5058354;28;20411;-37
2023/10/28 04:37:17;;;;;;;12.63;5.90;;;;;;;;;;5060466;28;20024;-38
2023/10/28 04:39:43;;;;;;;9.50;5.17;;;;;;;;;;5066952;28;20110;-38
2023/10/28 04:42:08;;;;;;;19.45;6.28;;;;;;;;;;5061099;28;20763;-39
2023/10/28 04:44:33;;;;;;;11.52;5.00;;;;;;;;;;5061625;28;20037;-40
2023/10/28 04:47:01;;;;;;;9.85;6.13;;;;;;;;;;5061364;28;20479;-39
2023/10/28 04:49:26;;;;;;;16.88;4.88;;;;;;;;;;5056110;28;20028;-38
2023/10/28 04:51:52;;;;;;;12.95;5.50;;;;;;;;;;5055622;28;20032;-40
2023/10/28 04:54:17;;;;;;;12.13;5.73;;;;;;;;;;5057423;28;20040;-40
2023/10/28 04:56:42;;;;;;;12.85;5.55;;;;;;;;;;5060070;28;20263;-39
2023/10/28 04:59:10;;;;;;;9.55;5.22;;;;;;;;;;5061646;28;20016;-39
2023/10/28 05:01:35;;;;;;;10.57;4.75;;;;;;;;;;5055164;28;20494;-38
2023/10/28 05:04:00;;;;;;;9.23;5.18;;;;;;;;;;5060905;28;20471;-38
2023/10/28 05:06:25;;;;;;;9.30;4.70;;;;;;;;;;5059895;28;20108;-39
2023/10/28 05:08:51;;;;;;;10.27;4.85;;;;;;;;;;5054518;28;20787;-38
2023/10/28 05:11:16;;;;;;;10.88;4.65;;;;;;;;;;5057345;28;20029;-39
2023/10/28 05:13:42;;;;;;;9.48;5.10;;;;;;;;;;5054434;28;20154;-39
2023/10/28 05:16:08;;;;;;;7.55;4.80;;;;;;;;;;5060030;28;20024;-38
2023/10/28 05:18:33;;;;;;;9.77;4.60;;;;;;;;;;5061621;28;20020;-38
2023/10/28 05:20:58;;;;;;;10.73;4.93;;;;;;;;;;5062600;28;20396;-39
2023/10/28 05:23:24;;;;;;;9.87;5.07;;;;;;;;;;5059939;28;20039;-39
2023/10/28 05:25:49;;;;;;;10.63;6.07;;;;;;;;;;5060555;28;20854;-39
2023/10/28 05:28:14;;;;;;;12.93;5.47;;;;;;;;;;5062076;28;20370;-38
2023/10/28 05:30:39;;;;;;;8.23;4.43;;;;;;;;;;5051797;28;20041;-37
2023/10/28 05:33:05;;;;;;;11.60;5.17;;;;;;;;;;5055725;28;20090;-39
2023/10/28 05:35:30;;;;;;;29.83;14.18;;;;;;;;;;5059211;28;20302;-39
2023/10/28 05:37:57;;;;;;;9.98;6.38;;;;;;;;;;5059664;28;20020;-39
2023/10/28 05:40:23;;;;;;;14.93;5.15;;;;;;;;;;5061241;28;20364;-38
2023/10/28 05:42:48;;;;;;;12.27;4.50;;;;;;;;;;5061023;28;20069;-39
2023/10/28 05:45:14;;;;;;;11.07;5.78;;;;;;;;;;5062506;28;20096;-39
2023/10/28 05:47:39;;;;;;;9.50;5.03;;;;;;;;;;5061196;28;20035;-38
2023/10/28 05:50:05;;;;;;;7.03;4.10;;;;;;;;;;5055017;28;20032;-37
2023/10/28 05:52:34;;;;;;;12.75;4.18;;;;;;;;;;5062217;28;22952;-39
2023/10/28 05:54:59;;;;;;;8.38;4.82;;;;;;;;;;5060993;28;20424;-38
2023/10/28 05:57:26;;;;;;;10.93;5.90;;;;;;;;;;5060963;28;20596;-40
2023/10/28 05:59:51;;;;;;;10.48;4.88;;;;;;;;;;5052976;28;20029;-40
2023/10/28 06:02:16;;;;;;;9.03;3.97;;;;;;;;;;5052643;28;20029;-38
2023/10/28 06:04:42;;;;;;;10.53;4.17;;;;;;;;;;5071703;28;20335;-39
2023/10/28 06:07:07;;;;;;;8.43;4.50;;;;;;;;;;5061526;28;20658;-39
2023/10/28 06:09:33;;;;;;;10.25;4.45;;;;;;;;;;5054054;28;20286;-40
2023/10/28 06:11:59;;;;;;;10.30;4.45;;;;;;;;;;5064632;28;20036;-39
2023/10/28 06:14:24;;;;;;;7.53;3.85;;;;;;;;;;5060007;28;20069;-38
2023/10/28 06:16:49;;;;;;;9.73;4.73;;;;;;;;;;5063133;28;20036;-38
2023/10/28 06:19:14;;;;;;;10.07;4.37;;;;;;;;;;5059349;28;20746;-39
2023/10/28 06:21:40;;;;;;;8.27;4.32;;;;;;;;;;5058931;28;20270;-38
2023/10/28 06:24:05;;;;;;;8.70;4.32;;;;;;;;;;5061529;28;20052;-39
2023/10/28 06:26:30;;;;;;;7.95;4.90;;;;;;;;;;5058530;28;20391;-40
2023/10/28 06:28:56;;;;;;;8.53;4.73;;;;;;;;;;5055554;28;20057;-39
2023/10/28 06:31:22;;;;;;;6.28;2.83;;;;;;;;;;5060770;28;20282;-39
2023/10/28 06:33:47;;;;;;;7.13;4.03;;;;;;;;;;5063245;28;20025;-40
2023/10/28 06:36:12;;;;;;;7.07;4.15;;;;;;;;;;5060668;28;20110;-39
2023/10/28 06:38:37;;;;;;;9.97;4.97;;;;;;;;;;5062954;28;20444;-40
2023/10/28 06:41:03;;;;;;;10.90;4.20;;;;;;;;;;5067055;28;20303;-40
2023/10/28 06:43:28;;;;;;;10.93;4.93;;;;;;;;;;5064587;28;20274;-40
2023/10/28 06:45:53;;;;;;;7.83;4.67;;;;;;;;;;5055935;28;20153;-39
2023/10/28 06:48:19;;;;;;;8.27;5.17;;;;;;;;;;5065885;28;20281;-38
2023/10/28 06:50:45;;;;;;;7.82;4.75;;;;;;;;;;5064333;28;20789;-39
2023/10/28 06:53:10;;;;;;;7.30;4.25;;;;;;;;;;5065496;28;20020;-39
2023/10/28 06:55:35;;;;;;;6.72;4.13;;;;;;;;;;5065043;28;20029;-39
2023/10/28 06:58:00;;;;;;;8.02;4.18;;;;;;;;;;5066568;28;20035;-38
2023/10/28 07:00:29;;;;;;;9.00;4.80;;;;;;;;;;5067295;28;20400;-39
2023/10/28 07:02:55;;;;;;;7.57;4.78;;;;;;;;;;5056744;28;20275;-39
2023/10/28 07:05:21;;;;;;;12.98;7.95;;;;;;;;;;5059627;28;20032;-37
2023/10/28 07:07:46;;;;;;;9.18;5.22;;;;;;;;;;5062343;28;20024;-39
2023/10/28 07:10:14;;;;;;;8.73;5.00;;;;;;;;;;5063458;28;20051;-38
2023/10/28 07:12:40;;;;;;;6.95;4.50;;;;;;;;;;5065566;28;20271;-38
2023/10/28 07:15:06;;;;;;;9.18;4.57;;;;;;;;;;5065302;28;20027;-38
2023/10/28 07:17:33;;;;;;;5.25;2.95;;;;;;;;;;5064767;28;20056;-40
2023/10/28 07:19:58;;;;;;;6.45;4.10;;;;;;;;;;5058159;28;20028;-37
2023/10/28 07:22:25;;;;;;;10.17;4.53;;;;;;;;;;5062107;28;20082;-39
2023/10/28 07:24:53;;;;;;;10.23;5.93;;;;;;;;;;5063198;28;20753;-39
2023/10/28 07:27:18;;;;;;;12.30;5.10;;;;;;;;;;5065165;28;20062;-39
2023/10/28 07:29:43;;;;;;;8.55;5.10;;;;;;;;;;5063053;28;20063;-42
2023/10/28 07:32:09;;;;;;;9.20;4.68;;;;;;;;;;5062911;28;20037;-37
2023/10/28 07:34:34;;;;;;;7.95;4.97;;;;;;;;;;5060594;28;20028;-38
2023/10/28 07:37:00;;;;;;;9.10;4.40;;;;;;;;;;5058308;28;20025;-37
2023/10/28 07:39:25;;;;;;;10.43;4.18;;;;;;;;;;5050974;28;20035;-36
2023/10/28 07:41:50;;;;;;;9.68;4.18;;;;;;;;;;5064268;28;20025;-40
2023/10/28 07:44:16;;;;;;;8.97;5.07;;;;;;;;;;5062267;28;20029;-38
2023/10/28 07:46:41;;;;;;;8.00;4.22;;;;;;;;;;5067562;28;20282;-39
2023/10/28 07:49:06;;;;;;;8.37;4.70;;;;;;;;;;5064587;28;20484;-37
2023/10/28 07:51:31;;;;;;;7.35;4.85;;;;;;;;;;5062147;28;20275;-37
2023/10/28 07:53:57;;;;;;;9.63;4.57;;;;;;;;;;5061190;28;20432;-37
2023/10/28 07:56:22;;;;;;;22.73;10.87;;;;;;;;;;5051622;28;20282;-40
2023/10/28 07:58:50;;;;;;;13.48;7.38;;;;;;;;;;5053201;28;20290;-39
2023/10/28 08:01:21;;;;;;;11.65;4.85;;;;;;;;;;5059086;28;20025;-39
2023/10/28 08:03:46;;;;;;;7.93;4.70;;;;;;;;;;5055502;28;20104;-39
2023/10/28 08:06:12;;;;;;;7.18;4.60;;;;;;;;;;5064770;28;20241;-39
2023/10/28 08:08:40;;;;;;;8.80;4.35;;;;;;;;;;5056711;28;20059;-39
2023/10/28 08:11:06;;;;;;;10.32;5.32;;;;;;;;;;5054903;28;20025;-38
2023/10/28 08:13:35;;;;;;;8.45;4.90;;;;;;;;;;5059671;28;20036;-37
2023/10/28 08:16:01;;;;;;;15.95;5.85;;;;;;;;;;5056680;28;20035;-38
2023/10/28 08:18:26;;;;;;;14.00;5.47;;;;;;;;;;5059895;28;20024;-40
2023/10/28 08:20:52;;;;;;;10.55;5.35;;;;;;;;;;5062845;28;20039;-38
2023/10/28 08:23:17;;;;;;;11.50;6.73;;;;;;;;;;5063742;28;20082;-39
2023/10/28 08:25:42;;;;;;;11.57;4.60;;;;;;;;;;5065181;28;21223;-39
2023/10/28 08:28:08;;;;;;;10.45;4.55;;;;;;;;;;5065109;28;20279;-40
2023/10/28 08:30:35;;;;;;;15.38;7.55;;;;;;;;;;5053319;28;20036;-39
2023/10/28 08:33:01;;;;;;;8.63;5.28;;;;;;;;;;5063674;28;20452;-38
2023/10/28 08:35:28;;;;;;;8.32;4.60;;;;;;;;;;5050191;28;20100;-38
2023/10/28 08:37:54;;;;;;;9.43;4.82;;;;;;;;;;5058501;28;20033;-38
2023/10/28 08:40:19;;;;;;;8.32;4.47;;;;;;;;;;5062242;28;20016;-39
2023/10/28 08:42:45;;;;;;;9.55;4.35;;;;;;;;;;5064471;28;20020;-41
2023/10/28 08:45:10;;;;;;;8.43;4.70;;;;;;;;;;5063295;28;20478;-39
2023/10/28 08:47:39;;;;;;;11.00;5.47;;;;;;;;;;5061339;28;20336;-39
2023/10/28 08:50:06;;;;;;;13.65;5.97;;;;;;;;;;5064861;28;20082;-40
2023/10/28 08:52:32;;;;;;;18.00;8.07;;;;;;;;;;5062580;28;20100;-38
2023/10/28 08:54:59;;;;;;;15.85;5.97;;;;;;;;;;5049022;28;20029;-37
2023/10/28 08:57:24;;;;;;;9.93;4.95;;;;;;;;;;5048833;28;20031;-38
2023/10/28 08:59:50;;;;;;;23.13;9.13;;;;;;;;;;5053483;28;20032;-38
2023/10/28 09:02:19;;;;;;;10.02;5.22;;;;;;;;;;5053659;28;21018;-39
2023/10/28 09:04:44;;;;;;;10.07;5.57;;;;;;;;;;5058495;28;20533;-38
2023/10/28 09:07:09;;;;;;;9.93;5.93;;;;;;;;;;5054791;28;20065;-37
2023/10/28 09:09:37;;;;;;;8.97;5.03;;;;;;;;;;5056466;28;20280;-37
2023/10/28 09:12:05;;;;;;;6.53;4.53;;;;;;;;;;5061159;28;20274;-39
2023/10/28 09:14:30;;;;;;;10.50;5.15;;;;;;;;;;5059542;28;20051;-39
2023/10/28 09:17:00;;;;;;;7.03;3.92;;;;;;;;;;5060803;28;20146;-40
2023/10/28 09:19:25;;;;;;;10.20;4.78;;;;;;;;;;5060674;28;20028;-40
2023/10/28 09:21:51;;;;;;;10.33;5.50;;;;;;;;;;5056503;28;20395;-39
2023/10/28 09:24:17;;;;;;;18.45;7.82;;;;;;;;;;5059563;28;20266;-40
2023/10/28 09:26:42;;;;;;;64.95;7.65;;;;;;;;;;5057751;28;20086;-41
2023/10/28 09:29:08;;;;;;;21.75;7.60;;;;;;;;;;5051363;28;20052;-39
2023/10/28 09:31:33;;;;;;;8.63;4.80;;;;;;;;;;5056369;28;20429;-40
2023/10/28 09:33:59;;;;;;;9.82;4.00;;;;;;;;;;5061654;28;20039;-42
2023/10/28 09:36:29;;;;;;;10.85;4.50;;;;;;;;;;5051983;28;20052;-43
2023/10/28 09:38:55;;;;;;;9.65;4.25;;;;;;;;;;5054154;28;20028;-39
2023/10/28 09:41:21;;;;;;;9.07;4.13;;;;;;;;;;5061552;28;20113;-41
2023/10/28 09:43:46;;;;;;;0.10;0.10;;;;;;;;;;5050741;28;20151;-39
2023/10/28 09:46:15;;;;;;;6.47;3.08;;;;;;;;;;5059027;28;20025;-41
2023/10/28 09:48:45;;;;;;;6.88;3.65;;;;;;;;;;5051010;28;20109;-38
2023/10/28 09:51:12;;;;;;;11.82;4.18;;;;;;;;;;5058095;28;20028;-41
2023/10/28 09:53:39;;;;;;;7.97;4.75;;;;;;;;;;5058734;28;20025;-41
2023/10/28 09:56:05;;;;;;;10.90;4.55;;;;;;;;;;5062442;28;20020;-41
2023/10/28 09:58:50;;;;;;;9.70;4.93;;;;;;;;;;5058875;28;20074;-44
2023/10/28 10:01:15;;;;;;;6.93;4.03;;;;;;;;;;5053645;28;20024;-46
2023/10/28 10:03:45;;;;;;;9.60;4.53;;;;;;;;;;5051661;28;20029;-40
2023/10/28 10:06:12;;;;;;;13.93;4.80;;;;;;;;;;5048549;28;20017;-41
2023/10/28 10:08:47;;;;;;;0.00;0.00;;;;;;;;;;5056831;28;20145;-42
2023/10/28 10:11:12;;;;;;;11.48;5.82;;;;;;;;;;5053150;28;20108;-43
2023/10/28 10:13:44;;;;;;;8.70;4.50;;;;;;;;;;5061988;28;20107;-42
2023/10/28 10:16:15;;;;;;;8.68;4.97;;;;;;;;;;5059230;28;20020;-40
2023/10/28 10:18:46;;;;;;;7.63;4.80;;;;;;;;;;5057238;28;20051;-43
2023/10/28 10:21:12;;;;;;;4.53;2.60;;;;;;;;;;5059495;28;20564;-44
2023/10/28 10:23:43;;;;;;;9.48;5.03;;;;;;;;;;5061071;28;20024;-43
2023/10/28 10:26:28;;;;;;;8.70;4.68;;;;;;;;;;5058118;28;20025;-44
2023/10/28 10:28:58;;;;;;;10.88;4.68;;;;;;;;;;5057475;28;20111;-40
2023/10/28 10:31:27;;;;;;;9.02;4.95;;;;;;;;;;5050452;28;20052;-39
2023/10/28 10:34:03;;;;;;;8.35;4.25;;;;;;;;;;5061527;28;20032;-38
2023/10/28 10:36:29;;;;;;;9.15;4.30;;;;;;;;;;5058908;28;20021;-38
2023/10/28 10:38:54;;;;;;;8.60;4.65;;;;;;;;;;5055540;28;20028;-37
2023/10/28 10:41:27;;;;;;;10.77;4.10;;;;;;;;;;5063326;28;20107;-38
2023/10/28 10:43:52;;;;;;;7.80;4.32;;;;;;;;;;5062209;28;20274;-38
2023/10/28 10:46:18;;;;;;;8.75;4.47;;;;;;;;;;5059268;28;20021;-36
2023/10/28 10:48:44;;;;;;;10.85;5.15;;;;;;;;;;5060561;28;20392;-38
2023/10/28 10:51:09;;;;;;;9.85;4.57;;;;;;;;;;5061753;28;20434;-39
2023/10/28 10:53:41;;;;;;;18.33;8.13;;;;;;;;;;5062046;28;20029;-38
2023/10/28 10:56:06;;;;;;;9.07;4.93;;;;;;;;;;5047995;28;20304;-39
2023/10/28 10:58:32;;;;;;;10.00;4.50;;;;;;;;;;5058793;28;20033;-39
2023/10/28 11:00:57;;;;;;;0.00;0.00;;;;;;;;;;5057395;28;20281;-37
2023/10/28 11:03:24;;;;;;;0.10;0.10;;;;;;;;;;5060748;28;20044;-38
2023/10/28 11:05:51;;;;;;;0.00;0.00;;;;;;;;;;5059155;28;20013;-38
2023/10/28 11:08:16;;;;;;;0.00;0.00;;;;;;;;;;5045677;28;20040;-38
2023/10/28 11:10:45;;;;;;;0.00;0.00;;;;;;;;;;5049813;28;20028;-37
2023/10/28 11:13:10;;;;;;;0.00;0.00;;;;;;;;;;5059537;28;20491;-39
2023/10/28 11:15:36;;;;;;;0.00;0.00;;;;;;;;;;5060028;28;20040;-37
2023/10/28 11:18:01;;;;;;;0.00;0.00;;;;;;;;;;5060100;28;20020;-38
2023/10/28 11:20:27;;;;;;;7.63;4.38;;;;;;;;;;5060371;28;20032;-38
2023/10/28 11:22:52;;;;;;;14.68;8.48;;;;;;;;;;5061979;28;20031;-37
2023/10/28 11:25:20;;;;;;;22.13;10.85;;;;;;;;;;5066062;28;20108;-39
2023/10/28 11:27:48;;;;;;;18.15;9.73;;;;;;;;;;5058336;28;20024;-39
2023/10/28 11:30:13;;;;;;;7.95;3.92;;;;;;;;;;5057833;28;20120;-40
2023/10/28 11:32:41;;;;;;;8.23;4.55;;;;;;;;;;5064793;28;20100;-37
2023/10/28 11:35:10;;;;;;;6.90;4.15;;;;;;;;;;5062860;28;20108;-39
2023/10/28 11:37:36;;;;;;;0.10;0.10;;;;;;;;;;5053641;28;20091;-38
2023/10/28 11:40:01;;;;;;;0.00;0.00;;;;;;;;;;5059031;28;20659;-39
2023/10/28 11:42:27;;;;;;;0.00;0.00;;;;;;;;;;5056128;28;20271;-38
2023/10/28 11:44:52;;;;;;;0.00;0.00;;;;;;;;;;5058676;28;20032;-36
2023/10/28 11:47:19;;;;;;;7.50;4.10;;;;;;;;;;5063976;28;20611;-38
2023/10/28 11:49:46;;;;;;;6.65;3.85;;;;;;;;;;5063062;28;20267;-37
2023/10/28 11:52:12;;;;;;;7.53;4.07;;;;;;;;;;5062925;28;20028;-38
2023/10/28 11:54:38;;;;;;;7.60;3.83;;;;;;;;;;5061427;28;20515;-36
2023/10/28 11:57:03;;;;;;;13.95;4.20;;;;;;;;;;5065581;28;20079;-38
2023/10/28 11:59:28;;;;;;;6.80;3.63;;;;;;;;;;5058453;28;20048;-39
2023/10/28 12:01:54;;;;;;;5.87;3.53;;;;;;;;;;5060121;28;20131;-38
2023/10/28 12:04:21;;;;;;;7.03;3.78;;;;;;;;;;5058958;28;20731;-39
2023/10/28 12:06:46;;;;;;;31.85;15.45;;;;;;;;;;5066164;28;20063;-37
2023/10/28 12:09:12;;;;;;;12.65;6.35;;;;;;;;;;5060719;28;20041;-39
2023/10/28 12:11:37;;;;;;;8.85;4.25;;;;;;;;;;5060545;28;20164;-39
2023/10/28 12:14:04;;;;;;;13.18;4.10;;;;;;;;;;5063962;28;20021;-38
2023/10/28 12:16:31;;;;;;;7.40;3.95;;;;;;;;;;5061058;28;20647;-38
2023/10/28 12:18:56;;;;;;;6.13;3.78;;;;;;;;;;5061562;28;20031;-37
2023/10/28 12:21:22;;;;;;;7.47;3.92;;;;;;;;;;5063781;28;20025;-37
2023/10/28 12:23:48;;;;;;;6.90;3.30;;;;;;;;;;5054167;28;20407;-37
2023/10/28 12:26:13;;;;;;;7.07;4.35;;;;;;;;;;5061364;28;20396;-38
2023/10/28 12:28:38;;;;;;;10.02;4.18;;;;;;;;;;5063168;28;20078;-40
2023/10/28 12:31:03;;;;;;;8.15;4.38;;;;;;;;;;5056066;28;20078;-39
2023/10/28 12:33:29;;;;;;;7.83;4.43;;;;;;;;;;5051085;28;20012;-37
2023/10/28 12:35:55;;;;;;;1.20;1.05;;;;;;;;;;5058224;28;21001;-38
2023/10/28 12:38:20;;;;;;;0.00;0.00;;;;;;;;;;5052389;28;20040;-39
2023/10/28 12:40:46;;;;;;;0.00;0.00;;;;;;;;;;5055763;28;20162;-38
2023/10/28 12:43:11;;;;;;;0.20;0.20;;;;;;;;;;5054379;28;20275;-39
2023/10/28 12:45:37;;;;;;;2.70;1.30;;;;;;;;;;5051270;28;20032;-39
2023/10/28 12:48:02;;;;;;;10.82;5.65;;;;;;;;;;5050994;28;20035;-38
2023/10/28 12:50:28;;;;;;;11.63;5.30;;;;;;;;;;5053629;28;20028;-38
2023/10/28 12:52:53;;;;;;;12.87;5.50;;;;;;;;;;5059460;28;20029;-39
2023/10/28 12:55:18;;;;;;;12.70;6.93;;;;;;;;;;5056051;28;20837;-39
2023/10/28 12:57:43;;;;;;;11.67;5.80;;;;;;;;;;5061038;28;20020;-39
2023/10/28 13:00:10;;;;;;;26.27;6.57;;;;;;;;;;5055639;28;20268;-39
2023/10/28 13:02:36;;;;;;;14.32;5.97;;;;;;;;;;5058361;28;20270;-39
2023/10/28 13:05:02;;;;;;;11.60;6.30;;;;;;;;;;5053809;28;20121;-39
2023/10/28 13:07:29;;;;;;;9.77;5.80;;;;;;;;;;5057835;28;20028;-39
2023/10/28 13:09:54;;;;;;;12.63;5.18;;;;;;;;;;5059450;28;20296;-39
2023/10/28 13:12:20;;;;;;;11.73;5.95;;;;;;;;;;5062198;28;21020;-40
2023/10/28 13:14:47;;;;;;;10.95;5.93;;;;;;;;;;5058923;28;20027;-39
2023/10/28 13:17:13;;;;;;;13.32;6.40;;;;;;;;;;5054232;28;20101;-40
2023/10/28 13:19:38;;;;;;;12.48;6.18;;;;;;;;;;5054950;28;20029;-39
2023/10/28 13:22:04;;;;;;;14.20;6.18;;;;;;;;;;5061871;28;21219;-41
2023/10/28 13:24:29;;;;;;;13.90;5.78;;;;;;;;;;5051925;28;20027;-38
2023/10/28 13:26:55;;;;;;;27.98;14.27;;;;;;;;;;5061435;28;20035;-40
2023/10/28 13:29:21;;;;;;;39.33;17.23;;;;;;;;;;5057256;28;25250;-40
2023/10/28 13:31:48;;;;;;;24.95;12.05;;;;;;;;;;5055449;28;20025;-40
2023/10/28 13:34:14;;;;;;;16.10;9.88;;;;;;;;;;5056332;28;20032;-39
2023/10/28 13:36:39;;;;;;;16.33;8.43;;;;;;;;;;5061690;28;20028;-40
2023/10/28 13:39:05;;;;;;;11.10;6.37;;;;;;;;;;5057614;28;20021;-39
2023/10/28 13:41:30;;;;;;;22.27;10.38;;;;;;;;;;5059167;28;20259;-39
2023/10/28 13:43:55;;;;;;;14.18;8.02;;;;;;;;;;5057251;28;20105;-41
2023/10/28 13:46:21;;;;;;;10.38;6.38;;;;;;;;;;5068818;28;20036;-40
2023/10/28 13:48:46;;;;;;;12.67;6.10;;;;;;;;;;5065078;28;20024;-40
2023/10/28 13:51:11;;;;;;;11.45;6.43;;;;;;;;;;5065076;28;20422;-40
2023/10/28 13:53:36;;;;;;;15.83;6.63;;;;;;;;;;5045735;28;20032;-39
2023/10/28 13:56:03;;;;;;;13.03;6.60;;;;;;;;;;5063500;28;20959;-39
2023/10/28 13:58:28;;;;;;;12.05;6.38;;;;;;;;;;5057368;28;20346;-39
2023/10/28 14:00:54;;;;;;;10.85;6.22;;;;;;;;;;5056591;28;20088;-39
2023/10/28 14:03:20;;;;;;;13.52;6.63;;;;;;;;;;5054005;28;20468;-39
2023/10/28 14:05:45;;;;;;;12.13;6.43;;;;;;;;;;5063974;28;20040;-40
2023/10/28 14:08:11;;;;;;;11.68;6.47;;;;;;;;;;5058882;28;20041;-40
2023/10/28 14:10:36;;;;;;;17.25;6.60;;;;;;;;;;5065203;28;20045;-41
2023/10/28 14:13:02;;;;;;;12.53;6.17;;;;;;;;;;5064360;28;20376;-40
2023/10/28 14:15:27;;;;;;;12.68;6.60;;;;;;;;;;5063478;28;20297;-41
2023/10/28 14:17:52;;;;;;;13.93;6.80;;;;;;;;;;5061281;28;20021;-40
2023/10/28 14:20:18;;;;;;;9.50;4.30;;;;;;;;;;5057909;28;20048;-39
2023/10/28 14:22:43;;;;;;;13.27;7.13;;;;;;;;;;5063082;28;20275;-39
2023/10/28 14:25:08;;;;;;;13.23;7.20;;;;;;;;;;5062957;28;20020;-39
2023/10/28 14:27:34;;;;;;;13.17;6.20;;;;;;;;;;5061156;28;20025;-39